sensor_id;sensor_type;location;lat;lon;timestamp;P1;durP1;ratioP1;P2;durP2;ratioP2
8594;SDS011;4335;48.860;9.198;2023-03-01T00:00:09;15.97;;;10.40;;
8594;SDS011;4335;48.860;9.198;2023-03-01T00:02:40;14.70;;;10.23;;
8594;SDS011;4335;48.860;9.198;2023-03-01T00:05:08;16.63;;;11.67;;
8594;SDS011;4335;48.860;9.198;2023-03-01T00:07:34;17.97;;;11.30;;
8594;SDS011;4335;48.860;9.198;2023-03-01T00:10:01;15.03;;;10.77;;
8594;SDS011;4335;48.860;9.198;2023-03-01T00:12:28;16.97;;;10.97;;
8594;SDS011;4335;48.860;9.198;2023-03-01T00:14:55;13.53;;;10.37;;
8594;SDS011;4335;48.860;9.198;2023-03-01T00:17:26;15.97;;;11.40;;
8594;SDS011;4335;48.860;9.198;2023-03-01T00:19:54;14.80;;;10.67;;
8594;SDS011;4335;48.860;9.198;2023-03-01T00:22:21;14.33;;;10.67;;
8594;SDS011;4335;48.860;9.198;2023-03-01T00:24:48;15.07;;;11.30;;
8594;SDS011;4335;48.860;9.198;2023-03-01T00:27:18;14.17;;;10.50;;
8594;SDS011;4335;48.860;9.198;2023-03-01T00:29:44;13.73;;;10.63;;
8594;SDS011;4335;48.860;9.198;2023-03-01T00:32:17;14.53;;;10.53;;
8594;SDS011;4335;48.860;9.198;2023-03-01T00:34:45;13.60;;;10.03;;
8594;SDS011;4335;48.860;9.198;2023-03-01T00:37:23;13.30;;;9.60;;
8594;SDS011;4335;48.860;9.198;2023-03-01T00:39:50;17.17;;;11.03;;
8594;SDS011;4335;48.860;9.198;2023-03-01T00:42:23;15.63;;;11.30;;
8594;SDS011;4335;48.860;9.198;2023-03-01T00:44:50;18.43;;;11.80;;
8594;SDS011;4335;48.860;9.198;2023-03-01T00:47:16;18.17;;;10.43;;
8594;SDS011;4335;48.860;9.198;2023-03-01T00:49:43;14.70;;;10.03;;
8594;SDS011;4335;48.860;9.198;2023-03-01T00:52:10;16.50;;;10.90;;
8594;SDS011;4335;48.860;9.198;2023-03-01T00:54:37;17.67;;;11.90;;
8594;SDS011;4335;48.860;9.198;2023-03-01T00:57:04;14.27;;;10.50;;
8594;SDS011;4335;48.860;9.198;2023-03-01T00:59:30;17.97;;;12.53;;
8594;SDS011;4335;48.860;9.198;2023-03-01T01:01:57;16.10;;;11.13;;
8594;SDS011;4335;48.860;9.198;2023-03-01T01:04:24;12.73;;;10.03;;
8594;SDS011;4335;48.860;9.198;2023-03-01T01:06:53;17.10;;;11.93;;
8594;SDS011;4335;48.860;9.198;2023-03-01T01:09:20;18.33;;;11.20;;
8594;SDS011;4335;48.860;9.198;2023-03-01T01:11:49;16.50;;;12.10;;
8594;SDS011;4335;48.860;9.198;2023-03-01T01:14:17;15.13;;;10.50;;
8594;SDS011;4335;48.860;9.198;2023-03-01T01:16:47;14.40;;;10.67;;
8594;SDS011;4335;48.860;9.198;2023-03-01T01:19:14;17.17;;;11.50;;
8594;SDS011;4335;48.860;9.198;2023-03-01T01:21:41;18.23;;;11.67;;
8594;SDS011;4335;48.860;9.198;2023-03-01T01:24:08;16.00;;;11.40;;
8594;SDS011;4335;48.860;9.198;2023-03-01T01:26:35;20.00;;;12.40;;
8594;SDS011;4335;48.860;9.198;2023-03-01T01:29:03;17.70;;;11.53;;
8594;SDS011;4335;48.860;9.198;2023-03-01T01:31:31;18.27;;;11.43;;
8594;SDS011;4335;48.860;9.198;2023-03-01T01:33:59;15.83;;;11.27;;
8594;SDS011;4335;48.860;9.198;2023-03-01T01:36:30;17.87;;;10.97;;
8594;SDS011;4335;48.860;9.198;2023-03-01T01:39:00;16.03;;;11.53;;
8594;SDS011;4335;48.860;9.198;2023-03-01T01:41:28;17.77;;;12.03;;
8594;SDS011;4335;48.860;9.198;2023-03-01T01:44:15;15.87;;;11.17;;
8594;SDS011;4335;48.860;9.198;2023-03-01T01:46:44;14.80;;;10.87;;
8594;SDS011;4335;48.860;9.198;2023-03-01T01:49:16;15.87;;;11.93;;
8594;SDS011;4335;48.860;9.198;2023-03-01T01:52:01;14.07;;;11.33;;
8594;SDS011;4335;48.860;9.198;2023-03-01T01:54:36;16.20;;;11.80;;
8594;SDS011;4335;48.860;9.198;2023-03-01T01:57:08;16.50;;;11.33;;
8594;SDS011;4335;48.860;9.198;2023-03-01T01:59:39;15.47;;;11.37;;
8594;SDS011;4335;48.860;9.198;2023-03-01T02:02:09;16.37;;;11.87;;
8594;SDS011;4335;48.860;9.198;2023-03-01T02:04:39;16.87;;;11.53;;
8594;SDS011;4335;48.860;9.198;2023-03-01T02:07:08;15.97;;;12.57;;
8594;SDS011;4335;48.860;9.198;2023-03-01T02:09:39;17.17;;;11.90;;
8594;SDS011;4335;48.860;9.198;2023-03-01T02:12:09;15.47;;;11.90;;
8594;SDS011;4335;48.860;9.198;2023-03-01T02:14:36;20.03;;;12.70;;
8594;SDS011;4335;48.860;9.198;2023-03-01T02:17:04;18.47;;;12.23;;
8594;SDS011;4335;48.860;9.198;2023-03-01T02:19:34;17.63;;;11.77;;
8594;SDS011;4335;48.860;9.198;2023-03-01T02:22:10;17.47;;;11.10;;
8594;SDS011;4335;48.860;9.198;2023-03-01T02:24:47;18.03;;;12.47;;
8594;SDS011;4335;48.860;9.198;2023-03-01T02:27:28;17.40;;;12.03;;
8594;SDS011;4335;48.860;9.198;2023-03-01T02:30:09;20.93;;;12.37;;
8594;SDS011;4335;48.860;9.198;2023-03-01T02:32:38;16.87;;;12.77;;
8594;SDS011;4335;48.860;9.198;2023-03-01T02:35:10;18.47;;;12.43;;
8594;SDS011;4335;48.860;9.198;2023-03-01T02:37:40;19.20;;;11.90;;
8594;SDS011;4335;48.860;9.198;2023-03-01T02:40:08;19.47;;;12.67;;
8594;SDS011;4335;48.860;9.198;2023-03-01T02:42:40;16.20;;;11.53;;
8594;SDS011;4335;48.860;9.198;2023-03-01T02:45:16;16.20;;;11.53;;
8594;SDS011;4335;48.860;9.198;2023-03-01T02:47:43;17.33;;;11.90;;
8594;SDS011;4335;48.860;9.198;2023-03-01T02:50:15;16.17;;;12.53;;
8594;SDS011;4335;48.860;9.198;2023-03-01T02:52:53;18.13;;;12.33;;
8594;SDS011;4335;48.860;9.198;2023-03-01T02:55:26;19.27;;;12.73;;
8594;SDS011;4335;48.860;9.198;2023-03-01T02:57:53;15.33;;;11.67;;
8594;SDS011;4335;48.860;9.198;2023-03-01T03:00:23;17.20;;;12.00;;
8594;SDS011;4335;48.860;9.198;2023-03-01T03:02:58;16.80;;;12.40;;
8594;SDS011;4335;48.860;9.198;2023-03-01T03:05:25;17.07;;;11.93;;
8594;SDS011;4335;48.860;9.198;2023-03-01T03:07:53;17.83;;;11.97;;
8594;SDS011;4335;48.860;9.198;2023-03-01T03:10:32;20.97;;;13.57;;
8594;SDS011;4335;48.860;9.198;2023-03-01T03:13:04;17.27;;;12.53;;
8594;SDS011;4335;48.860;9.198;2023-03-01T03:15:33;18.83;;;12.93;;
8594;SDS011;4335;48.860;9.198;2023-03-01T03:18:01;20.40;;;12.37;;
8594;SDS011;4335;48.860;9.198;2023-03-01T03:20:28;19.43;;;13.20;;
8594;SDS011;4335;48.860;9.198;2023-03-01T03:22:56;19.90;;;13.30;;
8594;SDS011;4335;48.860;9.198;2023-03-01T03:25:24;19.50;;;12.63;;
8594;SDS011;4335;48.860;9.198;2023-03-01T03:27:52;20.37;;;13.27;;
8594;SDS011;4335;48.860;9.198;2023-03-01T03:30:22;15.80;;;11.83;;
8594;SDS011;4335;48.860;9.198;2023-03-01T03:32:52;19.67;;;13.27;;
8594;SDS011;4335;48.860;9.198;2023-03-01T03:35:20;18.07;;;12.97;;
8594;SDS011;4335;48.860;9.198;2023-03-01T03:37:48;20.07;;;12.73;;
8594;SDS011;4335;48.860;9.198;2023-03-01T03:40:30;16.50;;;12.67;;
8594;SDS011;4335;48.860;9.198;2023-03-01T03:43:01;15.50;;;12.27;;
8594;SDS011;4335;48.860;9.198;2023-03-01T03:45:29;19.30;;;11.70;;
8594;SDS011;4335;48.860;9.198;2023-03-01T03:48:01;17.80;;;13.43;;
8594;SDS011;4335;48.860;9.198;2023-03-01T03:50:29;19.13;;;12.90;;
8594;SDS011;4335;48.860;9.198;2023-03-01T03:52:56;18.77;;;12.43;;
8594;SDS011;4335;48.860;9.198;2023-03-01T03:55:25;19.63;;;13.50;;
8594;SDS011;4335;48.860;9.198;2023-03-01T03:57:58;17.23;;;12.93;;
8594;SDS011;4335;48.860;9.198;2023-03-01T04:00:27;16.13;;;12.63;;
8594;SDS011;4335;48.860;9.198;2023-03-01T04:02:54;20.13;;;13.73;;
8594;SDS011;4335;48.860;9.198;2023-03-01T04:05:22;17.97;;;12.40;;
8594;SDS011;4335;48.860;9.198;2023-03-01T04:07:49;17.53;;;13.00;;
8594;SDS011;4335;48.860;9.198;2023-03-01T04:10:26;18.23;;;13.17;;
8594;SDS011;4335;48.860;9.198;2023-03-01T04:12:53;17.00;;;12.83;;
8594;SDS011;4335;48.860;9.198;2023-03-01T04:15:22;17.33;;;12.40;;
8594;SDS011;4335;48.860;9.198;2023-03-01T04:17:50;19.57;;;13.03;;
8594;SDS011;4335;48.860;9.198;2023-03-01T04:20:19;17.87;;;13.50;;
8594;SDS011;4335;48.860;9.198;2023-03-01T04:22:51;17.83;;;12.57;;
8594;SDS011;4335;48.860;9.198;2023-03-01T04:25:18;21.87;;;13.60;;
8594;SDS011;4335;48.860;9.198;2023-03-01T04:27:45;20.77;;;12.53;;
8594;SDS011;4335;48.860;9.198;2023-03-01T04:30:14;18.33;;;12.87;;
8594;SDS011;4335;48.860;9.198;2023-03-01T04:32:42;18.17;;;13.90;;
8594;SDS011;4335;48.860;9.198;2023-03-01T04:35:09;19.07;;;13.37;;
8594;SDS011;4335;48.860;9.198;2023-03-01T04:37:38;17.67;;;13.37;;
8594;SDS011;4335;48.860;9.198;2023-03-01T04:40:08;19.50;;;12.57;;
8594;SDS011;4335;48.860;9.198;2023-03-01T04:42:40;20.30;;;12.37;;
8594;SDS011;4335;48.860;9.198;2023-03-01T04:45:08;16.47;;;11.93;;
8594;SDS011;4335;48.860;9.198;2023-03-01T04:47:38;20.50;;;12.93;;
8594;SDS011;4335;48.860;9.198;2023-03-01T04:50:09;17.13;;;12.20;;
8594;SDS011;4335;48.860;9.198;2023-03-01T04:52:39;17.43;;;12.23;;
8594;SDS011;4335;48.860;9.198;2023-03-01T04:55:08;18.63;;;12.43;;
8594;SDS011;4335;48.860;9.198;2023-03-01T04:57:35;20.17;;;13.33;;
8594;SDS011;4335;48.860;9.198;2023-03-01T05:00:02;20.27;;;13.30;;
8594;SDS011;4335;48.860;9.198;2023-03-01T05:02:51;22.20;;;14.27;;
8594;SDS011;4335;48.860;9.198;2023-03-01T05:05:23;17.63;;;13.40;;
8594;SDS011;4335;48.860;9.198;2023-03-01T05:07:52;17.70;;;13.63;;
8594;SDS011;4335;48.860;9.198;2023-03-01T05:10:23;21.80;;;13.60;;
8594;SDS011;4335;48.860;9.198;2023-03-01T05:12:51;17.73;;;12.87;;
8594;SDS011;4335;48.860;9.198;2023-03-01T05:15:18;18.67;;;13.27;;
8594;SDS011;4335;48.860;9.198;2023-03-01T05:17:47;21.53;;;14.17;;
8594;SDS011;4335;48.860;9.198;2023-03-01T05:20:14;17.10;;;12.83;;
8594;SDS011;4335;48.860;9.198;2023-03-01T05:22:51;18.73;;;12.83;;
8594;SDS011;4335;48.860;9.198;2023-03-01T05:25:28;18.67;;;13.50;;
8594;SDS011;4335;48.860;9.198;2023-03-01T05:27:58;17.53;;;12.43;;
8594;SDS011;4335;48.860;9.198;2023-03-01T05:30:28;19.13;;;13.57;;
8594;SDS011;4335;48.860;9.198;2023-03-01T05:33:01;19.37;;;12.93;;
8594;SDS011;4335;48.860;9.198;2023-03-01T05:35:28;18.23;;;12.47;;
8594;SDS011;4335;48.860;9.198;2023-03-01T05:37:57;19.33;;;13.10;;
8594;SDS011;4335;48.860;9.198;2023-03-01T05:40:28;16.20;;;11.90;;
8594;SDS011;4335;48.860;9.198;2023-03-01T05:43:01;21.00;;;13.53;;
8594;SDS011;4335;48.860;9.198;2023-03-01T05:45:30;17.20;;;12.47;;
8594;SDS011;4335;48.860;9.198;2023-03-01T05:47:58;18.10;;;12.70;;
8594;SDS011;4335;48.860;9.198;2023-03-01T05:50:25;16.90;;;11.90;;
8594;SDS011;4335;48.860;9.198;2023-03-01T05:52:56;19.73;;;12.60;;
8594;SDS011;4335;48.860;9.198;2023-03-01T05:55:29;17.63;;;12.63;;
8594;SDS011;4335;48.860;9.198;2023-03-01T05:58:05;18.33;;;12.13;;
8594;SDS011;4335;48.860;9.198;2023-03-01T06:00:33;18.90;;;12.17;;
8594;SDS011;4335;48.860;9.198;2023-03-01T06:03:03;18.60;;;13.13;;
8594;SDS011;4335;48.860;9.198;2023-03-01T06:05:29;19.63;;;12.57;;
8594;SDS011;4335;48.860;9.198;2023-03-01T06:07:58;21.47;;;13.73;;
8594;SDS011;4335;48.860;9.198;2023-03-01T06:10:26;17.93;;;13.27;;
8594;SDS011;4335;48.860;9.198;2023-03-01T06:12:53;21.57;;;13.13;;
8594;SDS011;4335;48.860;9.198;2023-03-01T06:15:23;20.07;;;13.60;;
8594;SDS011;4335;48.860;9.198;2023-03-01T06:17:50;17.70;;;12.77;;
8594;SDS011;4335;48.860;9.198;2023-03-01T06:20:20;20.47;;;12.97;;
8594;SDS011;4335;48.860;9.198;2023-03-01T06:22:48;19.60;;;13.23;;
8594;SDS011;4335;48.860;9.198;2023-03-01T06:25:16;17.63;;;12.63;;
8594;SDS011;4335;48.860;9.198;2023-03-01T06:27:44;19.67;;;13.83;;
8594;SDS011;4335;48.860;9.198;2023-03-01T06:30:14;18.70;;;14.03;;
8594;SDS011;4335;48.860;9.198;2023-03-01T06:32:42;18.90;;;12.87;;
8594;SDS011;4335;48.860;9.198;2023-03-01T06:35:12;19.57;;;13.53;;
8594;SDS011;4335;48.860;9.198;2023-03-01T06:37:42;16.93;;;12.80;;
8594;SDS011;4335;48.860;9.198;2023-03-01T06:40:13;23.80;;;14.63;;
8594;SDS011;4335;48.860;9.198;2023-03-01T06:42:41;21.88;;;15.68;;
8594;SDS011;4335;48.860;9.198;2023-03-01T06:45:09;19.97;;;13.97;;
8594;SDS011;4335;48.860;9.198;2023-03-01T06:47:37;20.00;;;12.47;;
8594;SDS011;4335;48.860;9.198;2023-03-01T06:50:04;17.53;;;13.07;;
8594;SDS011;4335;48.860;9.198;2023-03-01T06:52:32;19.60;;;12.90;;
8594;SDS011;4335;48.860;9.198;2023-03-01T06:54:58;23.37;;;13.33;;
8594;SDS011;4335;48.860;9.198;2023-03-01T06:57:27;18.70;;;13.13;;
8594;SDS011;4335;48.860;9.198;2023-03-01T06:59:54;18.90;;;13.90;;
8594;SDS011;4335;48.860;9.198;2023-03-01T07:02:21;22.70;;;13.90;;
8594;SDS011;4335;48.860;9.198;2023-03-01T07:04:49;20.57;;;13.77;;
8594;SDS011;4335;48.860;9.198;2023-03-01T07:07:16;19.00;;;13.30;;
8594;SDS011;4335;48.860;9.198;2023-03-01T07:09:43;20.40;;;14.47;;
8594;SDS011;4335;48.860;9.198;2023-03-01T07:12:10;19.07;;;13.00;;
8594;SDS011;4335;48.860;9.198;2023-03-01T07:14:37;22.00;;;13.93;;
8594;SDS011;4335;48.860;9.198;2023-03-01T07:17:03;19.63;;;13.70;;
8594;SDS011;4335;48.860;9.198;2023-03-01T07:19:33;23.37;;;13.83;;
8594;SDS011;4335;48.860;9.198;2023-03-01T07:22:04;24.63;;;14.17;;
8594;SDS011;4335;48.860;9.198;2023-03-01T07:24:33;19.53;;;13.60;;
8594;SDS011;4335;48.860;9.198;2023-03-01T07:26:59;18.70;;;13.50;;
8594;SDS011;4335;48.860;9.198;2023-03-01T07:29:26;22.07;;;14.63;;
8594;SDS011;4335;48.860;9.198;2023-03-01T07:31:54;23.57;;;14.80;;
8594;SDS011;4335;48.860;9.198;2023-03-01T07:34:26;20.03;;;14.43;;
8594;SDS011;4335;48.860;9.198;2023-03-01T07:36:53;22.00;;;15.23;;
8594;SDS011;4335;48.860;9.198;2023-03-01T07:39:20;18.90;;;13.30;;
8594;SDS011;4335;48.860;9.198;2023-03-01T07:41:48;21.63;;;14.87;;
8594;SDS011;4335;48.860;9.198;2023-03-01T07:44:18;19.73;;;14.43;;
8594;SDS011;4335;48.860;9.198;2023-03-01T07:46:45;20.87;;;14.87;;
8594;SDS011;4335;48.860;9.198;2023-03-01T07:49:11;20.73;;;13.73;;
8594;SDS011;4335;48.860;9.198;2023-03-01T07:51:38;20.07;;;13.50;;
8594;SDS011;4335;48.860;9.198;2023-03-01T07:54:08;24.80;;;14.57;;
8594;SDS011;4335;48.860;9.198;2023-03-01T07:56:35;21.23;;;14.40;;
8594;SDS011;4335;48.860;9.198;2023-03-01T07:59:05;20.57;;;13.90;;
8594;SDS011;4335;48.860;9.198;2023-03-01T08:01:32;19.30;;;13.67;;
8594;SDS011;4335;48.860;9.198;2023-03-01T08:04:01;20.33;;;12.40;;
8594;SDS011;4335;48.860;9.198;2023-03-01T08:06:29;20.47;;;14.47;;
8594;SDS011;4335;48.860;9.198;2023-03-01T08:08:56;22.40;;;14.83;;
8594;SDS011;4335;48.860;9.198;2023-03-01T08:11:23;19.07;;;14.50;;
8594;SDS011;4335;48.860;9.198;2023-03-01T08:13:51;20.87;;;13.27;;
8594;SDS011;4335;48.860;9.198;2023-03-01T08:16:17;19.63;;;13.30;;
8594;SDS011;4335;48.860;9.198;2023-03-01T08:18:44;20.67;;;13.53;;
8594;SDS011;4335;48.860;9.198;2023-03-01T08:21:11;24.40;;;14.10;;
8594;SDS011;4335;48.860;9.198;2023-03-01T08:23:40;18.90;;;13.67;;
8594;SDS011;4335;48.860;9.198;2023-03-01T08:26:11;24.37;;;14.10;;
8594;SDS011;4335;48.860;9.198;2023-03-01T08:28:42;21.57;;;14.60;;
8594;SDS011;4335;48.860;9.198;2023-03-01T08:31:16;21.53;;;14.03;;
8594;SDS011;4335;48.860;9.198;2023-03-01T08:33:44;19.00;;;13.83;;
8594;SDS011;4335;48.860;9.198;2023-03-01T08:36:15;20.03;;;14.83;;
8594;SDS011;4335;48.860;9.198;2023-03-01T08:38:42;19.27;;;13.80;;
8594;SDS011;4335;48.860;9.198;2023-03-01T08:41:09;22.43;;;13.80;;
8594;SDS011;4335;48.860;9.198;2023-03-01T08:43:35;20.20;;;14.27;;
8594;SDS011;4335;48.860;9.198;2023-03-01T08:46:02;21.03;;;14.90;;
8594;SDS011;4335;48.860;9.198;2023-03-01T08:48:33;19.03;;;13.50;;
8594;SDS011;4335;48.860;9.198;2023-03-01T08:51:18;22.73;;;15.67;;
8594;SDS011;4335;48.860;9.198;2023-03-01T08:53:46;19.47;;;14.73;;
8594;SDS011;4335;48.860;9.198;2023-03-01T08:56:13;20.33;;;13.90;;
8594;SDS011;4335;48.860;9.198;2023-03-01T08:58:40;19.23;;;12.57;;
8594;SDS011;4335;48.860;9.198;2023-03-01T09:01:11;19.63;;;13.53;;
8594;SDS011;4335;48.860;9.198;2023-03-01T09:03:39;24.07;;;14.23;;
8594;SDS011;4335;48.860;9.198;2023-03-01T09:06:07;18.30;;;13.90;;
8594;SDS011;4335;48.860;9.198;2023-03-01T09:08:40;23.77;;;14.13;;
8594;SDS011;4335;48.860;9.198;2023-03-01T09:11:09;22.00;;;14.43;;
8594;SDS011;4335;48.860;9.198;2023-03-01T09:13:37;18.73;;;13.33;;
8594;SDS011;4335;48.860;9.198;2023-03-01T09:16:05;20.57;;;14.27;;
8594;SDS011;4335;48.860;9.198;2023-03-01T09:18:33;22.43;;;15.00;;
8594;SDS011;4335;48.860;9.198;2023-03-01T09:21:07;29.30;;;15.17;;
8594;SDS011;4335;48.860;9.198;2023-03-01T09:23:35;21.07;;;14.27;;
8594;SDS011;4335;48.860;9.198;2023-03-01T09:26:04;19.40;;;12.47;;
8594;SDS011;4335;48.860;9.198;2023-03-01T09:28:31;24.67;;;14.40;;
8594;SDS011;4335;48.860;9.198;2023-03-01T09:30:58;19.30;;;12.93;;
8594;SDS011;4335;48.860;9.198;2023-03-01T09:33:24;22.33;;;15.07;;
8594;SDS011;4335;48.860;9.198;2023-03-01T09:35:55;21.67;;;14.50;;
8594;SDS011;4335;48.860;9.198;2023-03-01T09:38:26;18.67;;;14.40;;
8594;SDS011;4335;48.860;9.198;2023-03-01T09:40:53;18.50;;;12.77;;
8594;SDS011;4335;48.860;9.198;2023-03-01T09:43:21;24.27;;;14.77;;
8594;SDS011;4335;48.860;9.198;2023-03-01T09:45:54;18.47;;;13.40;;
8594;SDS011;4335;48.860;9.198;2023-03-01T09:48:25;18.60;;;12.37;;
8594;SDS011;4335;48.860;9.198;2023-03-01T09:50:54;21.27;;;14.73;;
8594;SDS011;4335;48.860;9.198;2023-03-01T09:53:26;22.60;;;13.43;;
8594;SDS011;4335;48.860;9.198;2023-03-01T09:56:04;24.90;;;13.83;;
8594;SDS011;4335;48.860;9.198;2023-03-01T09:58:41;19.53;;;13.57;;
8594;SDS011;4335;48.860;9.198;2023-03-01T10:01:23;20.80;;;13.77;;
8594;SDS011;4335;48.860;9.198;2023-03-01T10:04:21;20.50;;;13.87;;
8594;SDS011;4335;48.860;9.198;2023-03-01T10:07:04;17.93;;;12.43;;
8594;SDS011;4335;48.860;9.198;2023-03-01T10:09:39;21.77;;;13.67;;
8594;SDS011;4335;48.860;9.198;2023-03-01T10:12:09;19.27;;;14.07;;
8594;SDS011;4335;48.860;9.198;2023-03-01T10:14:43;19.80;;;13.03;;
8594;SDS011;4335;48.860;9.198;2023-03-01T10:17:19;18.80;;;13.67;;
8594;SDS011;4335;48.860;9.198;2023-03-01T10:19:56;16.70;;;11.77;;
8594;SDS011;4335;48.860;9.198;2023-03-01T10:22:35;16.73;;;12.67;;
8594;SDS011;4335;48.860;9.198;2023-03-01T10:25:04;14.80;;;12.50;;
8594;SDS011;4335;48.860;9.198;2023-03-01T10:27:34;15.10;;;12.87;;
8594;SDS011;4335;48.860;9.198;2023-03-01T10:30:10;14.60;;;12.13;;
8594;SDS011;4335;48.860;9.198;2023-03-01T10:32:42;14.53;;;12.47;;
8594;SDS011;4335;48.860;9.198;2023-03-01T10:35:19;15.03;;;12.80;;
8594;SDS011;4335;48.860;9.198;2023-03-01T10:37:57;14.93;;;13.00;;
8594;SDS011;4335;48.860;9.198;2023-03-01T10:40:29;14.67;;;13.03;;
8594;SDS011;4335;48.860;9.198;2023-03-01T10:42:57;13.47;;;12.03;;
8594;SDS011;4335;48.860;9.198;2023-03-01T10:45:32;14.70;;;12.30;;
8594;SDS011;4335;48.860;9.198;2023-03-01T10:48:19;13.73;;;12.37;;
8594;SDS011;4335;48.860;9.198;2023-03-01T10:50:49;14.90;;;12.03;;
8594;SDS011;4335;48.860;9.198;2023-03-01T10:53:32;13.23;;;12.03;;
8594;SDS011;4335;48.860;9.198;2023-03-01T10:56:05;13.90;;;12.47;;
8594;SDS011;4335;48.860;9.198;2023-03-01T10:58:36;13.43;;;12.03;;
8594;SDS011;4335;48.860;9.198;2023-03-01T11:01:05;13.33;;;11.93;;
8594;SDS011;4335;48.860;9.198;2023-03-01T11:04:03;13.40;;;11.77;;
8594;SDS011;4335;48.860;9.198;2023-03-01T11:06:40;13.67;;;12.37;;
8594;SDS011;4335;48.860;9.198;2023-03-01T11:09:16;13.07;;;11.60;;
8594;SDS011;4335;48.860;9.198;2023-03-01T11:11:52;12.77;;;10.97;;
8594;SDS011;4335;48.860;9.198;2023-03-01T11:14:20;13.10;;;11.70;;
8594;SDS011;4335;48.860;9.198;2023-03-01T11:16:48;13.27;;;11.67;;
8594;SDS011;4335;48.860;9.198;2023-03-01T11:19:27;15.93;;;11.60;;
8594;SDS011;4335;48.860;9.198;2023-03-01T11:21:58;12.63;;;9.80;;
8594;SDS011;4335;48.860;9.198;2023-03-01T11:24:30;13.63;;;11.17;;
8594;SDS011;4335;48.860;9.198;2023-03-01T11:27:06;14.53;;;10.80;;
8594;SDS011;4335;48.860;9.198;2023-03-01T11:29:43;14.70;;;10.73;;
8594;SDS011;4335;48.860;9.198;2023-03-01T11:32:14;14.00;;;11.53;;
8594;SDS011;4335;48.860;9.198;2023-03-01T11:34:42;16.27;;;10.70;;
8594;SDS011;4335;48.860;9.198;2023-03-01T11:37:16;14.90;;;11.33;;
8594;SDS011;4335;48.860;9.198;2023-03-01T11:39:52;16.03;;;11.20;;
8594;SDS011;4335;48.860;9.198;2023-03-01T11:42:30;16.07;;;11.33;;
8594;SDS011;4335;48.860;9.198;2023-03-01T11:45:08;20.27;;;12.20;;
8594;SDS011;4335;48.860;9.198;2023-03-01T11:47:49;18.43;;;12.40;;
8594;SDS011;4335;48.860;9.198;2023-03-01T11:50:30;15.70;;;12.10;;
8594;SDS011;4335;48.860;9.198;2023-03-01T11:53:09;14.77;;;11.97;;
8594;SDS011;4335;48.860;9.198;2023-03-01T11:55:55;17.67;;;11.50;;
8594;SDS011;4335;48.860;9.198;2023-03-01T11:58:34;16.57;;;11.60;;
8594;SDS011;4335;48.860;9.198;2023-03-01T12:01:35;16.40;;;12.23;;
8594;SDS011;4335;48.860;9.198;2023-03-01T12:04:28;18.03;;;12.67;;
8594;SDS011;4335;48.860;9.198;2023-03-01T12:07:14;18.50;;;12.43;;
8594;SDS011;4335;48.860;9.198;2023-03-01T12:09:57;18.57;;;12.83;;
8594;SDS011;4335;48.860;9.198;2023-03-01T12:12:44;18.33;;;12.20;;
8594;SDS011;4335;48.860;9.198;2023-03-01T12:15:40;16.17;;;12.73;;
8594;SDS011;4335;48.860;9.198;2023-03-01T12:18:26;16.73;;;12.13;;
8594;SDS011;4335;48.860;9.198;2023-03-01T12:21:20;17.40;;;12.20;;
8594;SDS011;4335;48.860;9.198;2023-03-01T12:24:18;14.83;;;11.77;;
8594;SDS011;4335;48.860;9.198;2023-03-01T12:27:14;16.40;;;11.97;;
8594;SDS011;4335;48.860;9.198;2023-03-01T12:29:58;18.40;;;12.67;;
8594;SDS011;4335;48.860;9.198;2023-03-01T12:32:35;19.90;;;12.93;;
8594;SDS011;4335;48.860;9.198;2023-03-01T12:38:26;17.60;;;12.80;;
8594;SDS011;4335;48.860;9.198;2023-03-01T12:41:15;15.37;;;11.93;;
8594;SDS011;4335;48.860;9.198;2023-03-01T12:44:01;16.67;;;12.40;;
8594;SDS011;4335;48.860;9.198;2023-03-01T12:46:45;16.40;;;12.80;;
8594;SDS011;4335;48.860;9.198;2023-03-01T12:49:24;15.80;;;12.47;;
8594;SDS011;4335;48.860;9.198;2023-03-01T12:51:58;16.60;;;11.90;;
8594;SDS011;4335;48.860;9.198;2023-03-01T12:54:31;16.03;;;12.70;;
8594;SDS011;4335;48.860;9.198;2023-03-01T12:57:06;18.23;;;12.63;;
8594;SDS011;4335;48.860;9.198;2023-03-01T12:59:43;17.40;;;12.30;;
8594;SDS011;4335;48.860;9.198;2023-03-01T13:02:19;16.00;;;12.13;;
8594;SDS011;4335;48.860;9.198;2023-03-01T13:04:57;17.57;;;12.50;;
8594;SDS011;4335;48.860;9.198;2023-03-01T13:07:34;16.63;;;12.33;;
8594;SDS011;4335;48.860;9.198;2023-03-01T13:10:08;16.80;;;12.73;;
8594;SDS011;4335;48.860;9.198;2023-03-01T13:12:51;17.00;;;11.30;;
8594;SDS011;4335;48.860;9.198;2023-03-01T13:18:29;20.43;;;13.40;;
8594;SDS011;4335;48.860;9.198;2023-03-01T13:21:06;18.13;;;12.60;;
8594;SDS011;4335;48.860;9.198;2023-03-01T13:23:37;18.10;;;13.03;;
8594;SDS011;4335;48.860;9.198;2023-03-01T13:26:09;15.97;;;12.10;;
8594;SDS011;4335;48.860;9.198;2023-03-01T13:28:47;17.20;;;12.70;;
8594;SDS011;4335;48.860;9.198;2023-03-01T13:37:36;14.83;;;11.87;;
8594;SDS011;4335;48.860;9.198;2023-03-01T13:45:54;19.47;;;13.07;;
8594;SDS011;4335;48.860;9.198;2023-03-01T13:48:25;18.87;;;12.60;;
8594;SDS011;4335;48.860;9.198;2023-03-01T13:50:55;22.90;;;12.90;;
8594;SDS011;4335;48.860;9.198;2023-03-01T13:53:30;18.30;;;12.40;;
8594;SDS011;4335;48.860;9.198;2023-03-01T13:56:00;21.80;;;13.73;;
8594;SDS011;4335;48.860;9.198;2023-03-01T13:58:43;17.20;;;12.97;;
8594;SDS011;4335;48.860;9.198;2023-03-01T14:01:27;15.53;;;12.47;;
8594;SDS011;4335;48.860;9.198;2023-03-01T14:03:55;17.43;;;13.23;;
8594;SDS011;4335;48.860;9.198;2023-03-01T14:06:23;18.83;;;13.50;;
8594;SDS011;4335;48.860;9.198;2023-03-01T14:08:52;16.23;;;13.17;;
8594;SDS011;4335;48.860;9.198;2023-03-01T14:14:35;18.80;;;13.50;;
8594;SDS011;4335;48.860;9.198;2023-03-01T14:20:12;19.50;;;13.03;;
8594;SDS011;4335;48.860;9.198;2023-03-01T14:22:45;18.20;;;13.80;;
8594;SDS011;4335;48.860;9.198;2023-03-01T14:25:21;17.00;;;13.27;;
8594;SDS011;4335;48.860;9.198;2023-03-01T14:27:51;17.90;;;12.23;;
8594;SDS011;4335;48.860;9.198;2023-03-01T14:30:22;17.27;;;13.27;;
8594;SDS011;4335;48.860;9.198;2023-03-01T14:32:54;18.50;;;14.17;;
8594;SDS011;4335;48.860;9.198;2023-03-01T14:35:23;19.93;;;14.80;;
8594;SDS011;4335;48.860;9.198;2023-03-01T14:37:51;17.35;;;13.95;;
8594;SDS011;4335;48.860;9.198;2023-03-01T14:40:24;20.40;;;14.37;;
8594;SDS011;4335;48.860;9.198;2023-03-01T14:42:53;19.40;;;13.40;;
8594;SDS011;4335;48.860;9.198;2023-03-01T14:45:31;17.20;;;12.37;;
8594;SDS011;4335;48.860;9.198;2023-03-01T14:48:00;17.73;;;12.13;;
8594;SDS011;4335;48.860;9.198;2023-03-01T14:50:30;17.67;;;12.67;;
8594;SDS011;4335;48.860;9.198;2023-03-01T14:52:58;15.47;;;11.60;;
8594;SDS011;4335;48.860;9.198;2023-03-01T14:55:29;18.60;;;12.73;;
8594;SDS011;4335;48.860;9.198;2023-03-01T14:57:57;19.43;;;14.00;;
8594;SDS011;4335;48.860;9.198;2023-03-01T15:00:24;17.63;;;13.37;;
8594;SDS011;4335;48.860;9.198;2023-03-01T15:02:53;16.30;;;13.33;;
8594;SDS011;4335;48.860;9.198;2023-03-01T15:05:25;17.80;;;12.70;;
8594;SDS011;4335;48.860;9.198;2023-03-01T15:07:57;18.27;;;13.43;;
8594;SDS011;4335;48.860;9.198;2023-03-01T15:10:26;19.00;;;13.83;;
8594;SDS011;4335;48.860;9.198;2023-03-01T15:12:55;18.20;;;13.13;;
8594;SDS011;4335;48.860;9.198;2023-03-01T15:15:48;18.23;;;13.50;;
8594;SDS011;4335;48.860;9.198;2023-03-01T15:18:17;19.87;;;13.07;;
8594;SDS011;4335;48.860;9.198;2023-03-01T15:20:46;18.57;;;12.63;;
8594;SDS011;4335;48.860;9.198;2023-03-01T15:23:19;15.60;;;12.67;;
8594;SDS011;4335;48.860;9.198;2023-03-01T15:25:48;18.07;;;13.97;;
8594;SDS011;4335;48.860;9.198;2023-03-01T15:28:25;16.87;;;12.73;;
8594;SDS011;4335;48.860;9.198;2023-03-01T15:31:03;17.37;;;12.77;;
8594;SDS011;4335;48.860;9.198;2023-03-01T15:33:40;17.73;;;12.87;;
8594;SDS011;4335;48.860;9.198;2023-03-01T15:39:05;18.73;;;12.50;;
8594;SDS011;4335;48.860;9.198;2023-03-01T15:41:50;16.60;;;12.57;;